Time;durP1;ratioP1;P1;durP2;ratioP2;P2;SDS_P1;SDS_P2;PMS_P1;PMS_P2;Temp;Humidity;BMP_temperature;BMP_pressure;BME280_temperature;BME280_humidity;BME280_pressure;Samples;Min_cycle;Max_cycle;Signal;HPM_P1;HPM_P2
2023/12/26 00:01:58;;;;;;;;;1.67;1.33;;;;;12.59;66.76;101197.19;4996366;28;46126;-52
2023/12/26 00:04:24;;;;;;;;;5.33;1.00;;;;;12.60;66.39;101206.91;4996420;28;45339;-53
2023/12/26 00:06:49;;;;;;;;;1.00;1.00;;;;;12.63;67.27;101211.09;4999539;28;46357;-56
2023/12/26 00:09:15;;;;;;;;;2.67;1.00;;;;;12.62;67.38;101210.25;4999458;28;45440;-55
2023/12/26 00:11:45;;;;;;;;;1.33;1.33;;;;;12.60;66.49;101209.56;4999408;28;45367;-49
2023/12/26 00:14:11;;;;;;;;;2.67;2.00;;;;;12.62;66.03;101204.91;4999649;28;45377;-57
2023/12/26 00:16:36;;;;;;;;;7.00;3.00;;;;;12.61;66.66;101200.56;4999028;28;46324;-55
2023/12/26 00:19:02;;;;;;;;;3.33;1.00;;;;;12.61;66.54;101213.91;4999349;28;45299;-55
2023/12/26 00:21:28;;;;;;;;;6.67;2.67;;;;;12.59;66.27;101189.19;4999396;28;45200;-52
2023/12/26 00:23:53;;;;;;;;;3.67;2.00;;;;;12.62;66.44;101191.56;4999336;28;45370;-54
2023/12/26 00:26:18;;;;;;;;;6.67;3.00;;;;;12.62;66.66;101188.88;4999033;28;45378;-56
2023/12/26 00:28:44;;;;;;;;;1.00;1.00;;;;;12.62;66.79;101193.41;4998979;28;45385;-56
2023/12/26 00:31:09;;;;;;;;;4.00;2.00;;;;;12.61;66.41;101179.22;4999148;28;45727;-56
2023/12/26 00:33:34;;;;;;;;;1.00;1.00;;;;;12.62;67.25;101180.06;4999414;28;45305;-54
2023/12/26 00:36:00;;;;;;;;;2.00;2.00;;;;;12.62;66.19;101186.22;4998892;28;46099;-55
2023/12/26 00:38:26;;;;;;;;;1.33;1.33;;;;;12.59;66.55;101181.19;4998824;28;45377;-56
2023/12/26 00:40:51;;;;;;;;;4.00;2.00;;;;;12.61;66.50;101181.03;4998933;28;45469;-56
2023/12/26 00:43:16;;;;;;;;;3.00;2.00;;;;;12.61;66.70;101178.38;4999057;28;45431;-55
2023/12/26 00:45:42;;;;;;;;;5.33;1.33;;;;;12.61;66.02;101175.72;4998773;28;45393;-55
2023/12/26 00:48:07;;;;;;;;;2.33;1.00;;;;;12.60;66.48;101180.22;4998744;28;45362;-56
2023/12/26 00:50:34;;;;;;;;;4.33;3.00;;;;;12.59;66.06;101172.31;4998913;28;45437;-55
2023/12/26 00:53:00;;;;;;;;;3.67;2.00;;;;;12.57;65.85;101163.66;4999008;28;45331;-55
2023/12/26 00:55:25;;;;;;;;;3.33;2.00;;;;;12.56;65.44;101172.66;4998436;28;45448;-52
2023/12/26 00:57:51;;;;;;;;;5.00;1.00;;;;;12.57;66.18;101166.31;4998579;28;45355;-56
2023/12/26 01:00:17;;;;;;;;;2.67;1.67;;;;;12.56;66.07;101178.81;4998612;28;45333;-56
2023/12/26 01:02:42;;;;;;;;;4.00;1.33;;;;;12.57;65.96;101174.31;4998621;28;45419;-56
2023/12/26 01:05:08;;;;;;;;;1.67;1.67;;;;;12.55;66.02;101173.63;4998419;28;45425;-56
2023/12/26 01:07:33;;;;;;;;;4.00;2.33;;;;;12.54;65.69;101163.94;4998468;28;45472;-53
2023/12/26 01:10:02;;;;;;;;;4.33;2.67;;;;;12.54;66.07;101169.28;4998665;28;45430;-53
2023/12/26 01:12:27;;;;;;;;;1.00;1.00;;;;;12.49;65.55;101164.38;4998292;28;45500;-54
2023/12/26 01:14:53;;;;;;;;;2.67;1.00;;;;;12.47;66.09;101164.53;4998057;28;46013;-55
2023/12/26 01:17:18;;;;;;;;;1.67;1.00;;;;;12.44;66.32;101159.50;4997538;28;45354;-55
2023/12/26 01:19:44;;;;;;;;;7.33;2.33;;;;;12.41;66.01;101166.97;4998321;28;45332;-55
2023/12/26 01:22:09;;;;;;;;;7.33;1.00;;;;;12.35;66.24;101164.91;4998284;28;45511;-55
2023/12/26 01:24:35;;;;;;;;;3.00;2.00;;;;;12.31;66.54;101175.03;4998111;28;46120;-55
2023/12/26 01:27:01;;;;;;;;;4.00;2.00;;;;;12.28;66.65;101172.63;4998050;28;45394;-55
2023/12/26 01:29:26;;;;;;;;;1.67;1.67;;;;;12.24;67.19;101174.75;4998192;28;45185;-55
2023/12/26 01:31:52;;;;;;;;;1.67;1.67;;;;;12.29;67.37;101181.47;4998434;28;45453;-52
2023/12/26 01:34:17;;;;;;;;;3.33;2.33;;;;;12.30;66.95;101173.31;4997799;28;47107;-55
2023/12/26 01:36:42;;;;;;;;;6.33;1.00;;;;;12.34;67.11;101177.38;4997619;28;45223;-53
2023/12/26 01:39:08;;;;;;;;;6.00;1.67;;;;;12.36;67.39;101174.56;4998079;28;45479;-56
2023/12/26 01:41:35;;;;;;;;;5.00;2.00;;;;;12.35;67.54;101170.22;4998213;28;45132;-53
2023/12/26 01:44:00;;;;;;;;;0.67;0.67;;;;;12.38;67.65;101176.09;4997908;28;46272;-56
2023/12/26 01:46:25;;;;;;;;;8.33;1.67;;;;;12.37;67.25;101174.41;4997831;28;45436;-54
2023/12/26 01:48:53;;;;;;;;;2.00;2.00;;;;;12.34;67.16;101179.19;4998020;28;45432;-53
2023/12/26 01:51:19;;;;;;;;;4.00;4.00;;;;;12.40;67.76;101173.28;4998184;28;45497;-56
2023/12/26 01:53:45;;;;;;;;;3.00;1.33;;;;;12.38;67.55;101172.56;4997898;28;45960;-52
2023/12/26 01:56:15;;;;;;;;;6.00;2.00;;;;;12.36;67.49;101172.75;4997572;28;45855;-54
2023/12/26 01:58:42;;;;;;;;;2.00;0.00;;;;;12.33;67.60;101177.53;4996713;28;45398;-55
2023/12/26 02:01:09;;;;;;;;;1.00;1.00;;;;;12.34;67.37;101174.69;4997988;28;45500;-53
2023/12/26 02:03:35;;;;;;;;;0.33;0.00;;;;;12.33;67.73;101181.03;4997470;28;46261;-53
2023/12/26 02:06:00;;;;;;;;;2.33;2.33;;;;;12.34;67.32;101190.69;4998063;28;45437;-53
2023/12/26 02:08:27;;;;;;;;;3.00;1.33;;;;;12.35;67.43;101186.25;4997510;28;45290;-56
2023/12/26 02:10:52;;;;;;;;;3.67;1.00;;;;;12.35;67.59;101186.25;4997806;28;45524;-56
2023/12/26 02:13:18;;;;;;;;;3.67;1.67;;;;;12.34;67.66;101190.69;4997099;28;46310;-56
2023/12/26 02:15:48;;;;;;;;;4.00;2.00;;;;;12.34;67.55;101188.03;4997505;28;45650;-54
2023/12/26 02:18:13;;;;;;;;;4.00;2.67;;;;;12.32;68.08;101190.03;4997686;28;45465;-54
2023/12/26 02:20:39;;;;;;;;;3.00;1.00;;;;;12.29;67.88;101197.47;4997496;28;45533;-54
2023/12/26 02:23:04;;;;;;;;;5.33;1.33;;;;;12.23;67.65;101190.91;4997215;28;45295;-58
2023/12/26 02:25:30;;;;;;;;;1.00;1.00;;;;;12.18;67.94;101191.34;4997302;28;45347;-55
2023/12/26 02:27:57;;;;;;;;;4.00;1.00;;;;;12.14;68.41;101197.13;4996626;28;45453;-54
2023/12/26 02:30:23;;;;;;;;;8.33;2.00;;;;;12.08;68.17;101195.88;4997235;28;45406;-55
2023/12/26 02:32:49;;;;;;;;;2.33;2.00;;;;;12.03;68.97;101195.47;4997195;28;46287;-55
2023/12/26 02:35:16;;;;;;;;;4.00;2.00;;;;;11.99;69.08;101194.91;4996895;28;45588;-55
2023/12/26 02:37:42;;;;;;;;;6.33;1.33;;;;;11.98;69.19;101195.06;4997205;28;45383;-55
2023/12/26 02:40:08;;;;;;;;;1.00;1.00;;;;;11.91;69.48;101177.97;4995793;28;45468;-55
2023/12/26 02:42:33;;;;;;;;;2.00;2.00;;;;;11.99;69.04;101196.75;4997023;28;45418;-55
2023/12/26 02:44:58;;;;;;;;;5.00;2.00;;;;;11.98;68.85;101193.25;4996986;28;45413;-53
2023/12/26 02:47:24;;;;;;;;;3.33;2.00;;;;;11.93;69.25;101190.16;4995722;28;45263;-55
2023/12/26 02:49:50;;;;;;;;;4.00;1.33;;;;;12.00;69.31;101187.75;4997183;28;45184;-50
2023/12/26 02:52:16;;;;;;;;;6.00;2.33;;;;;12.02;69.46;101185.78;4996804;28;46061;-52
2023/12/26 02:54:41;;;;;;;;;1.67;1.00;;;;;12.00;69.05;101187.75;4996904;28;45324;-54
2023/12/26 02:57:06;;;;;;;;;1.00;1.00;;;;;12.03;69.05;101187.47;4996918;28;45370;-53
2023/12/26 02:59:32;;;;;;;;;4.00;0.67;;;;;12.03;69.72;101187.47;4997535;28;45231;-53
2023/12/26 03:02:00;;;;;;;;;2.67;2.00;;;;;12.03;69.81;101182.13;4996776;28;46002;-52
2023/12/26 03:04:26;;;;;;;;;1.33;0.33;;;;;12.08;69.75;101182.53;4995268;28;45792;-53
2023/12/26 03:06:52;;;;;;;;;2.67;2.00;;;;;12.07;69.41;101194.19;4996806;28;45385;-55
2023/12/26 03:09:17;;;;;;;;;2.00;1.00;;;;;12.03;69.61;101187.47;4996859;28;45417;-56
2023/12/26 03:11:43;;;;;;;;;2.67;0.33;;;;;12.02;69.80;101191.13;4996103;28;45937;-57
2023/12/26 03:14:08;;;;;;;;;1.67;1.00;;;;;12.05;69.87;101193.50;4996524;28;45454;-57
2023/12/26 03:16:33;;;;;;;;;2.00;2.00;;;;;12.12;69.41;101201.75;4996806;28;45450;-56
2023/12/26 03:18:59;;;;;;;;;2.00;2.00;;;;;12.14;69.85;101200.63;4996707;28;45474;-52
2023/12/26 03:21:24;;;;;;;;;2.33;1.00;;;;;12.13;69.39;101198.09;4996374;28;46082;-53
2023/12/26 03:23:51;;;;;;;;;2.00;2.00;;;;;12.17;69.75;101199.47;4996405;28;45329;-50
2023/12/26 03:26:16;;;;;;;;;1.33;1.33;;;;;12.17;69.66;101210.16;4996577;28;45296;-51
2023/12/26 03:28:42;;;;;;;;;3.33;1.33;;;;;12.19;69.59;101214.38;4996560;28;45308;-53
2023/12/26 03:31:07;;;;;;;;;4.00;1.00;;;;;12.22;69.77;101205.25;4996321;28;45956;-53
2023/12/26 03:33:33;;;;;;;;;6.00;2.00;;;;;12.22;69.89;101213.25;4996532;28;45221;-50
2023/12/26 03:35:58;;;;;;;;;3.00;1.00;;;;;12.15;69.83;101188.97;4996301;28;45337;-54
2023/12/26 03:38:23;;;;;;;;;2.00;1.00;;;;;12.23;69.95;101201.59;4996399;28;45280;-56
2023/12/26 03:40:49;;;;;;;;;3.00;1.00;;;;;12.22;69.30;101198.06;5001203;28;45822;-56
2023/12/26 03:43:16;;;;;;;;;5.67;1.00;;;;;12.24;69.81;101204.09;5002704;28;45517;-54
2023/12/26 03:45:42;;;;;;;;;4.33;2.00;;;;;12.11;70.22;101174.25;5002865;28;45469;-56
2023/12/26 03:48:07;;;;;;;;;2.67;1.00;;;;;12.24;69.25;101190.75;5002824;28;45360;-53
2023/12/26 03:50:33;;;;;;;;;1.00;1.00;;;;;12.23;70.04;101189.09;5002887;28;45992;-52
2023/12/26 03:52:58;;;;;;;;;3.33;1.67;;;;;12.21;69.87;101193.72;5002474;28;45263;-51
2023/12/26 03:55:23;;;;;;;;;5.00;2.00;;;;;12.22;69.75;101189.25;5002662;28;45774;-52
2023/12/26 03:57:49;;;;;;;;;1.00;1.00;;;;;12.19;70.29;101187.69;5002710;28;45226;-52
2023/12/26 04:00:14;;;;;;;;;2.33;2.00;;;;;12.16;69.67;101177.31;5002375;28;46088;-52
2023/12/26 04:02:40;;;;;;;;;3.00;3.00;;;;;12.13;69.89;101188.25;5002420;28;45406;-53
2023/12/26 04:05:07;;;;;;;;;3.00;1.00;;;;;12.10;70.15;101188.56;5002676;28;45414;-51
2023/12/26 04:07:32;;;;;;;;;6.00;1.67;;;;;12.11;70.60;101186.75;5003007;28;45347;-53
2023/12/26 04:09:58;;;;;;;;;3.00;1.33;;;;;12.11;70.62;101198.25;5002363;28;45901;-55
2023/12/26 04:12:23;;;;;;;;;1.00;1.00;;;;;12.03;70.63;101183.97;5002387;28;45264;-54
2023/12/26 04:14:49;;;;;;;;;2.33;2.00;;;;;12.13;70.29;101198.09;5002511;28;45285;-55
2023/12/26 04:17:16;;;;;;;;;2.00;2.00;;;;;12.06;70.49;101187.19;5002566;28;45405;-54
2023/12/26 04:19:41;;;;;;;;;3.00;3.00;;;;;12.12;70.73;101207.09;5002177;28;46252;-56
2023/12/26 04:22:06;;;;;;;;;3.00;1.00;;;;;12.09;71.12;101208.22;5002106;28;45330;-53
2023/12/26 04:24:32;;;;;;;;;3.00;1.00;;;;;12.11;70.99;101203.59;5002595;28;45517;-53
2023/12/26 04:26:57;;;;;;;;;1.33;1.00;;;;;12.09;71.23;101210.88;5002440;28;45256;-53
2023/12/26 04:29:23;;;;;;;;;3.00;1.33;;;;;12.06;71.18;101210.34;5001989;28;46081;-53
2023/12/26 04:31:48;;;;;;;;;3.67;2.00;;;;;12.07;71.29;101215.53;5002181;28;45430;-53
2023/12/26 04:34:13;;;;;;;;;1.00;0.33;;;;;12.11;71.00;101219.59;5002243;28;45496;-52
2023/12/26 04:36:39;;;;;;;;;3.67;1.33;;;;;12.11;71.05;101221.41;5002099;28;45386;-48
2023/12/26 04:39:04;;;;;;;;;2.00;1.67;;;;;12.10;71.44;101227.75;5002465;28;45414;-52
2023/12/26 04:41:31;;;;;;;;;8.67;2.00;;;;;12.06;71.63;101224.50;5001982;28;45481;-52
2023/12/26 04:43:57;;;;;;;;;1.00;1.00;;;;;12.08;70.92;101222.53;5000806;28;45386;-49
2023/12/26 04:46:22;;;;;;;;;4.00;1.00;;;;;12.09;71.20;101231.38;5002184;28;45237;-53
2023/12/26 04:48:47;;;;;;;;;6.00;1.00;;;;;12.07;71.43;101226.19;5001822;28;46096;-54
2023/12/26 04:51:16;;;;;;;;;7.33;3.33;;;;;12.05;72.00;101219.31;5000256;28;45326;-53
2023/12/26 04:53:49;;;;;;;;;2.33;1.00;;;;;12.08;71.29;101230.53;4998773;28;45539;-55
2023/12/26 04:56:20;;;;;;;;;4.33;1.00;;;;;12.07;71.54;101222.69;4998960;28;45340;-55
2023/12/26 04:58:50;;;;;;;;;2.33;1.00;;;;;12.07;71.87;101223.53;4998399;28;45426;-56
2023/12/26 05:01:16;;;;;;;;;1.00;1.00;;;;;12.09;72.16;101223.38;4998447;28;45557;-55
2023/12/26 05:03:43;;;;;;;;;1.00;1.00;;;;;12.05;71.95;101225.50;4998580;28;45577;-56
2023/12/26 05:06:09;;;;;;;;;3.00;1.67;;;;;12.06;71.88;101224.50;4998817;28;45485;-56
2023/12/26 05:08:38;;;;;;;;;4.00;2.33;;;;;12.06;72.27;101226.34;4998469;28;45430;-56
2023/12/26 05:11:03;;;;;;;;;1.67;1.00;;;;;12.06;71.99;101231.69;4998531;28;45235;-55
2023/12/26 05:13:29;;;;;;;;;3.67;1.67;;;;;11.99;72.17;101234.91;4998324;28;45355;-55
2023/12/26 05:15:54;;;;;;;;;3.00;1.00;;;;;12.05;72.25;101241.50;4998657;28;45387;-56
2023/12/26 05:18:20;;;;;;;;;7.67;1.67;;;;;12.05;72.20;101244.19;4998258;28;47080;-56
2023/12/26 05:20:45;;;;;;;;;1.33;1.33;;;;;12.05;72.50;101246.84;4998096;28;45525;-56
2023/12/26 05:23:11;;;;;;;;;2.00;1.00;;;;;12.05;72.73;101241.50;4998454;28;45423;-57
2023/12/26 05:25:37;;;;;;;;;2.33;1.67;;;;;12.06;72.41;101258.34;4998801;28;45819;-56
2023/12/26 05:28:03;;;;;;;;;2.00;1.33;;;;;11.96;72.79;101245.00;4998035;28;46416;-57
2023/12/26 05:30:29;;;;;;;;;3.33;1.67;;;;;12.06;73.06;101261.00;4998084;28;45394;-55
2023/12/26 05:32:54;;;;;;;;;3.67;1.00;;;;;12.03;72.82;101267.47;4998289;28;45413;-54
2023/12/26 05:35:20;;;;;;;;;3.00;1.00;;;;;12.05;72.61;101262.84;4998052;28;45430;-57
2023/12/26 05:37:45;;;;;;;;;3.00;3.00;;;;;12.02;72.76;101251.63;4998092;28;46091;-56
2023/12/26 05:40:10;;;;;;;;;1.00;1.00;;;;;12.04;72.82;101258.47;4998081;28;45327;-57
2023/12/26 05:42:36;;;;;;;;;3.67;1.67;;;;;12.05;72.67;101265.50;4998066;28;45331;-57
2023/12/26 05:45:03;;;;;;;;;9.00;2.00;;;;;12.05;72.77;101277.97;4998424;28;45236;-56
2023/12/26 05:47:28;;;;;;;;;3.33;1.67;;;;;12.05;73.15;101273.50;4997754;28;46409;-57
2023/12/26 05:49:57;;;;;;;;;3.00;3.00;;;;;12.06;73.02;101279.69;4997895;28;45236;-56
2023/12/26 05:52:23;;;;;;;;;2.00;2.00;;;;;12.06;73.04;101288.53;4998033;28;45422;-56
2023/12/26 05:54:48;;;;;;;;;2.33;1.00;;;;;12.04;73.54;101289.63;4997991;28;45477;-56
2023/12/26 05:57:14;;;;;;;;;8.33;2.67;;;;;12.04;72.87;101301.13;4997675;28;46305;-56
2023/12/26 05:59:39;;;;;;;;;4.00;2.00;;;;;12.06;73.22;101299.19;4997907;28;45374;-56
2023/12/26 06:02:05;;;;;;;;;7.00;2.00;;;;;12.07;73.60;101295.53;4997936;28;45432;-56
2023/12/26 06:04:30;;;;;;;;;1.67;1.67;;;;;12.09;73.68;101306.03;4997605;28;45421;-56
2023/12/26 06:06:55;;;;;;;;;3.33;1.33;;;;;12.07;73.32;101300.03;4997759;28;46194;-52
2023/12/26 06:09:21;;;;;;;;;3.33;1.00;;;;;12.06;73.83;101296.50;4997536;28;45246;-54
2023/12/26 06:11:46;;;;;;;;;2.67;2.00;;;;;12.09;73.98;101300.69;4997732;28;45303;-56
2023/12/26 06:14:11;;;;;;;;;2.00;1.00;;;;;12.07;73.57;101305.34;4997635;28;45228;-54
2023/12/26 06:16:37;;;;;;;;;1.00;1.00;;;;;12.06;73.91;101303.69;4997444;28;45418;-55
2023/12/26 06:19:02;;;;;;;;;3.00;1.33;;;;;12.07;73.97;101314.19;4997687;28;45354;-56
2023/12/26 06:21:28;;;;;;;;;1.67;1.67;;;;;12.06;74.61;101315.19;4997594;28;45366;-55
2023/12/26 06:23:53;;;;;;;;;4.00;1.33;;;;;12.05;74.00;101309.97;4996354;28;45389;-56
2023/12/26 06:26:18;;;;;;;;;2.67;1.00;;;;;12.06;74.69;101306.34;4996116;28;45421;-56
2023/12/26 06:28:44;;;;;;;;;7.67;4.00;;;;;12.08;75.06;101307.88;4997240;28;45529;-55
2023/12/26 06:31:15;;;;;;;;;7.00;2.33;;;;;12.05;75.36;101307.31;4997506;28;45362;-55
2023/12/26 06:33:41;;;;;;;;;1.67;1.00;;;;;12.01;76.31;101312.09;4997587;28;45271;-55
2023/12/26 06:36:08;;;;;;;;;2.00;2.00;;;;;11.99;76.33;101306.91;4997283;28;45935;-55
2023/12/26 06:38:33;;;;;;;;;9.00;6.00;;;;;11.95;77.10;101291.34;4997365;28;45316;-56
2023/12/26 06:40:58;;;;;;;;;6.33;2.33;;;;;11.98;76.49;101301.72;4997220;28;45228;-56
2023/12/26 06:43:24;;;;;;;;;7.00;3.00;;;;;11.94;76.51;101300.31;4997144;28;45451;-55
2023/12/26 06:45:49;;;;;;;;;3.33;1.67;;;;;11.90;76.95;101301.59;4996998;28;46027;-56
2023/12/26 06:48:15;;;;;;;;;3.67;2.00;;;;;11.89;77.04;101318.56;4996991;28;45449;-56
2023/12/26 06:50:40;;;;;;;;;2.00;2.00;;;;;11.86;77.13;101318.84;4997086;28;45383;-55
2023/12/26 06:53:06;;;;;;;;;1.67;1.00;;;;;11.86;76.94;101329.50;4997279;28;45337;-53
2023/12/26 06:55:31;;;;;;;;;4.00;1.00;;;;;11.83;78.12;101337.78;4996692;28;45517;-55
2023/12/26 06:57:57;;;;;;;;;4.00;1.00;;;;;11.82;77.69;101334.25;4996848;28;45385;-55
2023/12/26 07:00:22;;;;;;;;;4.00;2.00;;;;;11.83;78.32;101345.78;4996761;28;45259;-56
2023/12/26 07:02:47;;;;;;;;;3.67;2.00;;;;;11.79;78.32;101336.34;4996793;28;45362;-56
2023/12/26 07:05:13;;;;;;;;;4.00;1.33;;;;;11.83;77.92;101337.78;4996525;28;46147;-56
2023/12/26 07:07:38;;;;;;;;;1.33;1.33;;;;;11.83;77.57;101345.78;4996723;28;45688;-55
2023/12/26 07:10:04;;;;;;;;;4.67;3.00;;;;;11.80;78.31;101341.56;4996876;28;45314;-57
2023/12/26 07:12:29;;;;;;;;;2.00;1.00;;;;;11.77;77.68;101335.66;4996883;28;45486;-54
2023/12/26 07:14:55;;;;;;;;;3.33;1.00;;;;;11.74;78.98;101358.94;4995626;28;45384;-56
2023/12/26 07:17:20;;;;;;;;;3.00;1.00;;;;;11.73;78.27;101357.25;4996517;28;45430;-54
2023/12/26 07:19:45;;;;;;;;;3.33;2.33;;;;;11.76;78.37;101371.28;4996529;28;45294;-52
2023/12/26 07:22:11;;;;;;;;;6.00;2.00;;;;;11.73;77.83;101361.75;4996593;28;45423;-55
2023/12/26 07:24:36;;;;;;;;;2.67;2.67;;;;;11.73;78.38;101372.41;4996264;28;47216;-55
2023/12/26 07:27:02;;;;;;;;;3.00;3.00;;;;;11.73;77.52;101375.06;4995134;28;45518;-55
2023/12/26 07:29:28;;;;;;;;;2.67;1.00;;;;;11.76;78.58;101389.94;4996397;28;45241;-55
2023/12/26 07:31:54;;;;;;;;;3.67;2.00;;;;;11.72;78.71;101392.03;4996603;28;45362;-55
2023/12/26 07:34:20;;;;;;;;;2.00;1.33;;;;;11.80;77.89;101397.53;4996238;28;45378;-55
2023/12/26 07:36:45;;;;;;;;;1.67;1.00;;;;;11.79;78.36;101390.50;5011346;28;45441;-55
2023/12/26 07:39:10;;;;;;;;;2.00;2.00;;;;;11.80;77.61;101399.31;4996448;28;45358;-54
2023/12/26 07:41:36;;;;;;;;;6.33;2.00;;;;;11.77;78.25;101400.47;4996573;28;45386;-56
2023/12/26 07:44:01;;;;;;;;;7.00;2.00;;;;;11.79;78.21;101419.81;4996094;28;45419;-56
2023/12/26 07:46:27;;;;;;;;;2.00;2.00;;;;;11.80;78.10;101416.19;4996096;28;45405;-55
2023/12/26 07:48:52;;;;;;;;;7.00;3.00;;;;;11.84;78.28;101422.09;4996322;28;45391;-55
2023/12/26 07:51:17;;;;;;;;;6.33;2.00;;;;;11.86;77.97;101425.47;4996517;28;45248;-55
2023/12/26 07:53:43;;;;;;;;;2.00;2.00;;;;;11.81;77.73;101423.19;4996219;28;45821;-56
2023/12/26 07:56:08;;;;;;;;;3.67;3.67;;;;;11.88;78.25;101436.84;4996168;28;45365;-56
2023/12/26 07:58:34;;;;;;;;;8.00;2.00;;;;;11.90;77.76;101443.72;4996154;28;45398;-55
2023/12/26 08:01:01;;;;;;;;;1.33;1.00;;;;;11.90;78.28;101441.06;4995053;28;45359;-55
2023/12/26 08:03:26;;;;;;;;;3.00;3.00;;;;;11.90;77.72;101437.56;4995934;28;46349;-55
2023/12/26 08:05:52;;;;;;;;;4.00;3.00;;;;;11.92;77.99;101447.06;4996023;28;45377;-55
2023/12/26 08:08:17;;;;;;;;;5.33;2.33;;;;;11.93;77.94;101448.78;4996678;28;45289;-55
2023/12/26 08:10:44;;;;;;;;;6.33;2.00;;;;;11.95;78.39;101457.47;4996170;28;45525;-54
2023/12/26 08:13:10;;;;;;;;;6.33;2.00;;;;;11.95;78.21;101462.81;4995947;28;45386;-56
2023/12/26 08:15:35;;;;;;;;;2.33;2.00;;;;;11.98;77.79;101465.22;4995878;28;45449;-54
2023/12/26 08:18:00;;;;;;;;;8.67;1.67;;;;;11.99;78.16;101463.38;4995930;28;45342;-53
2023/12/26 08:20:26;;;;;;;;;2.00;2.00;;;;;11.99;78.16;101466.03;4996111;28;45600;-54
2023/12/26 08:22:52;;;;;;;;;2.33;2.00;;;;;12.02;78.38;101475.59;4995558;28;45892;-52
2023/12/26 08:25:17;;;;;;;;;4.00;2.00;;;;;12.03;77.93;101487.94;4995706;28;45488;-54
2023/12/26 08:27:43;;;;;;;;;3.00;3.00;;;;;12.03;78.44;101477.28;4997851;28;45782;-52
2023/12/26 08:30:09;;;;;;;;;2.67;1.33;;;;;12.05;78.27;101481.50;4999331;28;45538;-54
2023/12/26 08:32:34;;;;;;;;;6.33;2.00;;;;;12.10;78.35;101489.94;4998861;28;46260;-53
2023/12/26 08:35:00;;;;;;;;;5.00;1.67;;;;;12.11;77.73;101498.78;4998931;28;45916;-54
2023/12/26 08:37:27;;;;;;;;;2.67;2.33;;;;;12.12;78.19;101503.13;4997783;28;45367;-54
2023/12/26 08:39:53;;;;;;;;;3.00;2.00;;;;;12.12;78.15;101506.63;4999069;28;45354;-54
2023/12/26 08:42:18;;;;;;;;;2.00;2.00;;;;;12.12;77.85;101508.44;4998326;28;47010;-52
2023/12/26 08:44:43;;;;;;;;;2.67;0.67;;;;;12.09;78.27;101501.56;4998833;28;45415;-56
2023/12/26 08:47:09;;;;;;;;;4.33;2.00;;;;;12.11;78.56;101515.63;4998699;28;45259;-55
2023/12/26 08:49:34;;;;;;;;;7.33;3.00;;;;;12.11;78.20;101512.09;4999192;28;45410;-55
2023/12/26 08:52:02;;;;;;;;;4.00;1.67;;;;;12.08;78.87;101513.22;4998448;28;45350;-55
2023/12/26 08:54:27;;;;;;;;;6.00;3.00;;;;;12.11;78.45;101506.78;4998378;28;45617;-55
2023/12/26 08:56:53;;;;;;;;;3.33;2.33;;;;;12.08;78.21;101504.38;4998730;28;45458;-55
2023/12/26 08:59:18;;;;;;;;;2.67;1.00;;;;;12.06;78.83;101503.69;4998655;28;45300;-54
2023/12/26 09:01:43;;;;;;;;;4.67;1.00;;;;;12.07;78.57;101510.69;4998365;28;47332;-56
2023/12/26 09:04:09;;;;;;;;;8.00;2.00;;;;;12.08;79.03;101515.88;4998399;28;45259;-55
2023/12/26 09:06:35;;;;;;;;;5.67;4.00;;;;;12.10;79.21;101526.44;4998566;28;45295;-56
2023/12/26 09:09:00;;;;;;;;;3.00;2.00;;;;;12.01;80.13;101521.91;4998682;28;45268;-57
2023/12/26 09:11:26;;;;;;;;;3.33;2.00;;;;;12.04;80.12;101535.81;4997073;28;46310;-53
2023/12/26 09:13:52;;;;;;;;;3.00;3.00;;;;;12.07;80.95;101556.03;4998585;28;45319;-55
2023/12/26 09:16:18;;;;;;;;;3.00;3.00;;;;;12.09;81.15;101562.06;4998461;28;45244;-56
2023/12/26 09:18:43;;;;;;;;;5.00;2.00;;;;;12.08;80.99;101563.88;4998344;28;45326;-55
2023/12/26 09:21:09;;;;;;;;;1.67;1.33;;;;;12.06;81.23;101565.84;4998162;28;46157;-56
2023/12/26 09:23:34;;;;;;;;;6.00;2.00;;;;;12.06;82.01;101573.03;4998252;28;45209;-55
2023/12/26 09:26:03;;;;;;;;;4.00;2.00;;;;;12.03;81.54;101582.13;4998263;28;45377;-56
2023/12/26 09:28:29;;;;;;;;;4.33;1.33;;;;;12.01;81.25;101584.09;4998228;28;45512;-55
2023/12/26 09:30:55;;;;;;;;;8.67;3.00;;;;;12.04;81.62;101594.47;4997847;28;45387;-55
2023/12/26 09:33:20;;;;;;;;;6.00;2.00;;;;;11.95;82.14;101571.28;4997978;28;45265;-55
2023/12/26 09:35:46;;;;;;;;;8.00;2.00;;;;;12.06;82.23;101584.53;4997978;28;45417;-54
2023/12/26 09:38:11;;;;;;;;;4.00;3.00;;;;;12.05;81.56;101576.66;4996337;28;45387;-53
2023/12/26 09:40:38;;;;;;;;;3.33;1.00;;;;;12.06;81.70;101584.53;4997729;28;45275;-54
2023/12/26 09:43:04;;;;;;;;;2.67;2.67;;;;;12.10;82.37;101588.63;4997603;28;45283;-52
2023/12/26 09:45:31;;;;;;;;;2.33;1.00;;;;;12.12;81.82;101596.47;4997931;28;45273;-52
2023/12/26 09:47:57;;;;;;;;;1.67;1.67;;;;;12.09;81.88;101610.91;4998232;28;45382;-52
2023/12/26 09:50:23;;;;;;;;;3.00;2.00;;;;;12.10;82.39;101617.94;4997522;28;46182;-52
2023/12/26 09:52:58;;;;;;;;;4.33;2.67;;;;;12.14;81.96;101621.19;4997831;28;45511;-51
2023/12/26 09:55:25;;;;;;;;;2.00;2.00;;;;;12.05;82.59;101605.97;4997748;28;45441;-51
2023/12/26 09:57:50;;;;;;;;;2.67;1.67;;;;;12.15;82.68;101613.06;4997768;28;45330;-54
2023/12/26 10:00:16;;;;;;;;;7.33;3.67;;;;;12.16;81.89;101619.22;4997317;28;46246;-52
2023/12/26 10:02:42;;;;;;;;;2.67;2.67;;;;;12.18;82.56;101631.47;4997551;28;45635;-54
2023/12/26 10:05:08;;;;;;;;;3.33;3.00;;;;;12.20;82.44;101634.81;4997691;28;45245;-52
2023/12/26 10:07:34;;;;;;;;;7.67;2.00;;;;;12.22;82.00;101642.72;4997908;28;45562;-55
2023/12/26 10:09:59;;;;;;;;;3.67;2.00;;;;;12.23;81.61;101655.91;4997381;28;45408;-56
2023/12/26 10:12:32;;;;;;;;;7.33;3.00;;;;;12.25;81.70;101647.75;4997621;28;45321;-54
2023/12/26 10:14:59;;;;;;;;;3.33;2.00;;;;;12.24;81.83;101644.25;4997479;28;45490;-52
2023/12/26 10:17:25;;;;;;;;;4.67;3.00;;;;;12.24;81.96;101646.91;4997440;28;45224;-55
2023/12/26 10:19:55;;;;;;;;;1.33;1.33;;;;;12.32;81.51;101650.72;4997178;28;46235;-50
2023/12/26 10:22:20;;;;;;;;;4.67;3.00;;;;;12.35;81.47;101645.13;5012366;28;45426;-53
2023/12/26 10:24:47;;;;;;;;;4.67;4.00;;;;;12.42;81.50;101654.25;4997141;28;45308;-52
2023/12/26 10:27:12;;;;;;;;;4.00;2.00;;;;;12.42;81.26;101649.75;4997634;28;45385;-54
2023/12/26 10:29:38;;;;;;;;;4.67;2.00;;;;;12.45;81.45;101651.31;4997339;28;46927;-55
2023/12/26 10:32:04;;;;;;;;;3.67;3.33;;;;;12.48;80.81;101640.38;4997330;28;45200;-53
2023/12/26 10:34:30;;;;;;;;;7.00;3.00;;;;;12.47;81.28;101652.00;4997342;28;45218;-56
2023/12/26 10:36:56;;;;;;;;;2.33;2.00;;;;;12.51;80.68;101650.75;4997131;28;45299;-54
2023/12/26 10:39:23;;;;;;;;;3.00;3.00;;;;;12.52;80.41;101647.13;4996890;28;46395;-54
2023/12/26 10:41:49;;;;;;;;;4.33;2.00;;;;;12.51;81.31;101664.09;4997321;28;45587;-54
2023/12/26 10:44:16;;;;;;;;;3.67;3.00;;;;;12.52;81.21;101662.31;4997365;28;45413;-53
2023/12/26 10:46:43;;;;;;;;;4.67;2.67;;;;;12.54;81.10;101663.84;4997196;28;45377;-53
2023/12/26 10:49:11;;;;;;;;;3.67;3.33;;;;;12.58;81.46;101653.75;4995998;28;46971;-52
2023/12/26 10:51:41;;;;;;;;;4.67;4.67;;;;;12.54;81.42;101641.66;4996827;28;45409;-55
2023/12/26 10:54:06;;;;;;;;;5.33;3.00;;;;;12.65;80.96;101647.72;4997185;28;45440;-55
2023/12/26 10:56:32;;;;;;;;;1.67;1.67;;;;;12.62;80.72;101634.63;4995795;28;45641;-52
2023/12/26 10:58:58;;;;;;;;;3.00;2.33;;;;;12.76;80.59;101640.56;4996721;28;47226;-54
2023/12/26 13:52:51;;;;;;;;;7.33;3.00;;;;;12.99;80.73;101620.63;4997792;28;45364;-53
2023/12/26 13:55:16;;;;;;;;;6.00;2.00;;;;;12.95;80.42;101614.72;4997911;28;45544;-52
2023/12/26 13:57:41;;;;;;;;;4.00;2.00;;;;;12.97;81.04;101625.25;4997878;28;45442;-50
2023/12/26 14:00:07;;;;;;;;;2.00;2.00;;;;;12.97;81.00;101623.41;4998138;28;45374;-52
2023/12/26 14:02:32;;;;;;;;;3.67;3.67;;;;;12.98;81.39;101625.13;4997400;28;45378;-53
2023/12/26 14:04:57;;;;;;;;;3.67;2.00;;;;;12.98;81.12;101622.44;4997646;28;45424;-52
2023/12/26 14:07:23;;;;;;;;;4.00;2.00;;;;;12.98;80.61;101622.44;4997955;28;45351;-51
2023/12/26 14:09:48;;;;;;;;;2.00;2.00;;;;;13.01;81.08;101623.97;4997947;28;45355;-52